Terminal Aerodrome Forecast
Issued by NWS Topeka, KS

Home | Current Version | Previous Version | Graphics & Text | Print | Product List | Glossary On
Versions: 1 2 3 4 5 6 7 8 9 10 11 12 13
949
FTUS43 KTOP 202339
TAFTOP
TAF
KTOP 202339Z 2100/2124 23010KT P6SM SCT150
     FM210200 23008KT P6SM SCT150 WS015/20045KT
     FM211100 33008KT P6SM OVC100
     FM211600 35017G26KT P6SM SCT080=

USA.gov is the U.S. government's official web portal to all federal, state and local government web resources and services.